Alexander Maersk — OZRC2 — position and weather

sailwx.info

Track history (hours):
 
Tides and Currents Weather Stations Pressure Air Temp Water Temp Dewpoint Dewpoint Depression Visibility Wind Speed Wind Dir Waves Ship Positions

Alexander Maersk

Last reported at 2017-Feb-21 18:33 UTC. Time now 2017-Feb-21 19:06 UTC.
Position N 35°37' E 014°11'.

Length 155 m; draft 8.1 m.

Type: Cargo ship. MMSI: 219470000.

Date/timePositionNaut miles runAvg speedWind from/ knotsBaromVisibWave heightAir tempDewpointWater temp
2017-Feb-21 18:33N 35°37' E 014°11'8 8.4
2017-Feb-21 17:33N 35°41' E 014°20'9 9.0
2017-Feb-21 16:33N 35°45' E 014°30'5 0.1
2017-Feb-20 09:31N 35°49' E 014°33'8 1.3
2017-Feb-20 03:32N 35°44' E 014°26'4 4.1
2017-Feb-20 02:33N 35°46' E 014°22'5 4.8
2017-Feb-20 01:33N 35°48' E 014°17'5 5.0
2017-Feb-20 00:33N 35°51' E 014°12'6 5.6
2017-Feb-19 23:33N 35°54' E 014°06'7 7.5
2017-Feb-19 22:33N 35°58' E 013°58'6 5.6
2017-Feb-19 21:33N 36°01' E 013°52'  
Track history (hours):
 
Tides and Currents Weather Stations Pressure Air Temp Water Temp Dewpoint Dewpoint Depression Visibility Wind Speed Wind Dir Waves Ship Positions

Alexander Maersk

Last reported at 2017-Feb-21 18:33 UTC. Time now 2017-Feb-21 19:06 UTC.
Position N 35°37' E 014°11'.

Length 155 m; draft 8.1 m.

Type: Cargo ship. MMSI: 219470000.

Date/timePositionNaut miles runAvg speedWind from/ knotsBaromVisibWave heightAir tempDewpointWater temp
2017-Feb-21 18:33N 35°37' E 014°11'8 8.4
2017-Feb-21 17:33N 35°41' E 014°20'9 9.0
2017-Feb-21 16:33N 35°45' E 014°30'5 0.1
2017-Feb-20 09:31N 35°49' E 014°33'8 1.3
2017-Feb-20 03:32N 35°44' E 014°26'4 4.1
2017-Feb-20 02:33N 35°46' E 014°22'5 4.8
2017-Feb-20 01:33N 35°48' E 014°17'5 5.0
2017-Feb-20 00:33N 35°51' E 014°12'6 5.6
2017-Feb-19 23:33N 35°54' E 014°06'7 7.5
2017-Feb-19 22:33N 35°58' E 013°58'6 5.6
2017-Feb-19 21:33N 36°01' E 013°52'  

Dump ship's entire track history